Time;durP1;ratioP1;P1;durP2;ratioP2;P2;SDS_P1;SDS_P2;PMS_P1;PMS_P2;Temp;Humidity;BMP_temperature;BMP_pressure;BME280_temperature;BME280_humidity;BME280_pressure;Samples;Min_cycle;Max_cycle;Signal;HPM_P1;HPM_P2
2022/09/01 00:00:40;;;;;;;3.63;1.55;;;;;;;17.31;51.04;101863.13;6182053;23;20027;-69
2022/09/01 00:03:09;;;;;;;2.67;1.60;;;;;;;17.32;51.40;101856.59;6185508;23;20028;-69
2022/09/01 00:05:35;;;;;;;2.72;1.52;;;;;;;17.31;51.85;101849.44;6185518;23;20009;-69
2022/09/01 00:08:01;;;;;;;5.53;1.42;;;;;;;17.28;51.78;101855.41;6185449;23;20035;-69
2022/09/01 00:10:27;;;;;;;3.03;1.50;;;;;;;17.29;51.99;101857.06;6185133;23;20009;-69
2022/09/01 00:12:52;;;;;;;5.53;1.65;;;;;;;17.23;52.21;101855.31;6158298;23;20466;-69
2022/09/01 00:15:17;;;;;;;7.22;1.92;;;;;;;17.20;52.12;101844.88;6159391;23;20091;-70
2022/09/01 00:17:43;;;;;;;3.58;1.50;;;;;;;17.23;52.66;101858.06;6185515;23;20009;-69
2022/09/01 00:20:09;;;;;;;6.20;2.03;;;;;;;17.22;52.52;101845.44;6184191;23;20005;-69
2022/09/01 00:22:35;;;;;;;3.53;1.73;;;;;;;17.22;53.04;101846.28;6185497;23;20005;-69
2022/09/01 00:25:00;;;;;;;2.20;1.30;;;;;;;17.17;53.45;101847.00;6185328;23;20009;-69
2022/09/01 00:27:26;;;;;;;5.32;1.55;;;;;;;17.13;53.80;101845.00;6185197;23;20005;-69
2022/09/01 00:29:51;;;;;;;5.57;1.40;;;;;;;17.15;53.73;101851.91;6184883;23;20001;-69
2022/09/01 00:32:17;;;;;;;4.30;1.65;;;;;;;17.10;54.70;101854.53;6185246;23;20004;-69
2022/09/01 00:34:42;;;;;;;3.97;1.33;;;;;;;17.11;54.45;101849.91;6183833;23;20005;-69
2022/09/01 00:37:08;;;;;;;4.28;1.80;;;;;;;17.12;54.62;101849.66;6185714;23;20021;-69
2022/09/01 00:39:33;;;;;;;4.10;1.70;;;;;;;17.07;55.14;101844.06;6185373;23;20012;-69
2022/09/01 00:41:58;;;;;;;4.60;1.52;;;;;;;17.01;55.33;101847.78;6184776;23;20027;-69
2022/09/01 00:44:26;;;;;;;4.80;1.83;;;;;;;17.05;55.95;101851.69;6185206;23;20002;-69
2022/09/01 00:46:54;;;;;;;3.70;1.92;;;;;;;17.00;55.70;101855.16;6158906;23;20096;-69
2022/09/01 00:49:34;;;;;;;7.30;1.80;;;;;;;17.00;55.20;101844.22;6185248;23;20435;-69
2022/09/01 00:52:14;;;;;;;3.58;1.65;;;;;;;17.03;55.70;101842.94;6184352;23;20537;-69
2022/09/01 00:54:46;;;;;;;6.78;1.98;;;;;;;17.04;56.11;101841.81;6185027;23;20321;-69
2022/09/01 00:57:12;;;;;;;2.88;1.50;;;;;;;17.04;56.04;101847.31;6185535;23;20304;-69
2022/09/01 00:59:45;;;;;;;1.95;1.65;;;;;;;16.92;56.75;101844.59;6184807;23;20438;-69
2022/09/01 01:02:11;;;;;;;3.72;1.60;;;;;;;16.97;56.71;101844.72;6181856;23;20015;-69
2022/09/01 01:04:37;;;;;;;5.32;1.40;;;;;;;16.99;56.29;101844.47;6185124;23;20414;-69
2022/09/01 01:07:02;;;;;;;5.15;1.67;;;;;;;16.98;57.04;101843.66;6185444;23;20080;-69
2022/09/01 01:09:34;;;;;;;2.72;1.58;;;;;;;16.94;57.26;101844.34;6185395;23;20012;-69
2022/09/01 01:12:01;;;;;;;9.00;1.60;;;;;;;16.93;57.03;101837.25;6184520;23;20016;-69
2022/09/01 01:14:30;;;;;;;5.78;1.73;;;;;;;16.84;57.86;101844.97;6185101;23;20005;-69
2022/09/01 01:16:57;;;;;;;4.55;1.58;;;;;;;16.91;57.40;101833.91;6159004;23;20059;-69
2022/09/01 01:24:57;;;;;;;6.35;1.60;;;;;;;16.79;58.06;101829.31;6186037;23;20449;-69
2022/09/01 01:27:23;;;;;;;4.32;1.80;;;;;;;16.77;58.01;101841.53;6189163;23;20001;-69
2022/09/01 01:29:50;;;;;;;2.30;1.50;;;;;;;16.68;58.61;101834.78;6179340;23;19989;-69
2022/09/01 01:32:16;;;;;;;4.13;1.52;;;;;;;16.62;58.52;101840.16;6199587;23;20001;-69
2022/09/01 01:34:44;;;;;;;5.40;2.10;;;;;;;16.60;58.55;101833.28;6185373;23;20033;-70
2022/09/01 01:37:10;;;;;;;2.97;1.70;;;;;;;16.59;58.97;101835.19;6185231;23;20178;-69
2022/09/01 01:39:39;;;;;;;4.10;1.83;;;;;;;16.58;59.31;101835.44;6157794;23;20004;-69
2022/09/01 01:42:08;;;;;;;7.38;1.77;;;;;;;16.49;59.54;101832.25;6158737;23;20009;-69
2022/09/01 01:44:36;;;;;;;4.68;1.67;;;;;;;16.53;59.28;101838.88;6184633;23;20047;-69
2022/09/01 01:47:07;;;;;;;4.20;1.83;;;;;;;16.42;59.93;101843.28;6184078;23;20441;-69
2022/09/01 01:49:33;;;;;;;4.07;1.80;;;;;;;16.45;59.89;101837.34;6184774;23;20024;-69
2022/09/01 01:51:58;;;;;;;2.95;1.80;;;;;;;16.38;59.98;101842.13;6184824;23;20005;-70
2022/09/01 01:54:25;;;;;;;2.67;1.73;;;;;;;16.40;59.99;101842.69;6158046;23;20331;-69
2022/09/01 01:56:51;;;;;;;6.60;1.83;;;;;;;16.39;60.44;101849.22;6184282;23;20020;-69
2022/09/01 01:59:18;;;;;;;4.75;1.80;;;;;;;16.41;60.38;101847.09;6184917;23;20005;-69
2022/09/01 02:01:48;;;;;;;5.63;1.70;;;;;;;16.39;60.52;101848.41;6181732;23;20009;-69
2022/09/01 02:04:15;;;;;;;3.70;1.75;;;;;;;16.35;60.71;101842.59;6183228;23;20036;-69
2022/09/01 02:06:44;;;;;;;3.17;1.85;;;;;;;16.32;60.82;101843.06;6183727;23;20001;-69
2022/09/01 02:09:10;;;;;;;9.13;2.08;;;;;;;16.34;60.88;101840.94;6184154;23;20025;-69
2022/09/01 02:11:36;;;;;;;2.83;1.90;;;;;;;16.30;60.60;101842.47;6184045;23;20402;-69
2022/09/01 02:14:03;;;;;;;3.95;2.00;;;;;;;16.32;60.39;101842.22;6184620;23;20040;-69
2022/09/01 02:16:31;;;;;;;3.42;2.00;;;;;;;16.27;61.14;101846.53;6184326;23;20039;-69
2022/09/01 02:18:57;;;;;;;4.43;2.33;;;;;;;16.25;60.72;101847.81;6183947;23;20300;-69
2022/09/01 02:21:24;;;;;;;5.88;1.83;;;;;;;16.26;61.19;101849.47;6184369;23;20012;-69
2022/09/01 02:23:59;;;;;;;2.90;1.92;;;;;;;16.19;61.15;101851.50;6157331;23;20346;-69
2022/09/01 02:26:37;;;;;;;7.28;1.63;;;;;;;16.21;61.27;101852.09;6183989;23;20013;-69
2022/09/01 02:29:06;;;;;;;5.93;2.10;;;;;;;16.17;61.16;101846.28;6184180;23;20040;-69
2022/09/01 02:31:38;;;;;;;2.55;1.80;;;;;;;16.16;61.31;101839.16;6184331;23;20075;-69
2022/09/01 02:34:09;;;;;;;2.22;1.60;;;;;;;16.15;61.46;101836.66;6184694;23;20438;-69
2022/09/01 02:36:46;;;;;;;3.13;1.90;;;;;;;16.11;61.44;101845.34;6184280;23;20001;-69
2022/09/01 02:39:12;;;;;;;5.15;2.00;;;;;;;16.03;61.79;101845.69;6159393;23;20005;-69
2022/09/01 02:41:38;;;;;;;3.25;1.90;;;;;;;16.08;61.93;101840.34;6186258;23;20059;-69
2022/09/01 02:44:10;;;;;;;10.73;1.90;;;;;;;16.06;61.55;101847.97;6160204;23;20084;-69
2022/09/01 02:46:43;;;;;;;6.57;2.03;;;;;;;16.04;61.94;101841.06;6185892;23;20005;-69
2022/09/01 02:49:18;;;;;;;3.70;1.90;;;;;;;16.03;61.95;101839.41;6186668;23;20005;-69
2022/09/01 02:52:00;;;;;;;2.45;1.98;;;;;;;15.99;61.74;101838.19;6186202;23;20016;-69
2022/09/01 02:54:26;;;;;;;7.82;2.08;;;;;;;15.96;62.26;101834.06;6186234;23;20423;-69
2022/09/01 02:56:53;;;;;;;4.70;2.20;;;;;;;15.94;62.56;101836.19;6183739;23;20021;-69
2022/09/01 02:59:20;;;;;;;4.57;2.40;;;;;;;15.87;62.76;101833.59;6160044;23;20414;-69
2022/09/01 03:01:47;;;;;;;6.45;2.05;;;;;;;15.88;62.35;101831.69;6183121;23;20036;-69
2022/09/01 03:04:13;;;;;;;3.78;2.20;;;;;;;15.85;62.87;101822.09;6160054;23;20012;-70
2022/09/01 03:06:39;;;;;;;3.90;2.15;;;;;;;15.85;62.64;101823.97;6185403;23;20012;-69
2022/09/01 03:09:16;;;;;;;4.63;2.17;;;;;;;15.77;62.52;101817.78;6186053;23;20103;-69
2022/09/01 03:11:48;;;;;;;3.97;1.90;;;;;;;15.80;62.43;101818.41;6185616;23;20001;-70
2022/09/01 03:14:13;;;;;;;3.97;1.80;;;;;;;15.77;62.36;101817.78;6186133;23;20016;-70
2022/09/01 03:16:39;;;;;;;2.97;2.05;;;;;;;15.77;62.44;101830.56;6159223;23;20029;-70
2022/09/01 03:19:07;;;;;;;3.50;2.28;;;;;;;15.75;62.97;101822.63;6186026;23;20001;-70
2022/09/01 03:21:36;;;;;;;5.38;2.05;;;;;;;15.66;63.31;101828.69;6186436;23;20005;-70
2022/09/01 03:24:02;;;;;;;5.07;2.15;;;;;;;15.68;62.79;101821.06;6184101;23;20338;-69
2022/09/01 03:26:29;;;;;;;4.15;2.10;;;;;;;15.61;63.34;101829.38;6159284;23;20027;-69
2022/09/01 03:28:58;;;;;;;3.28;1.73;;;;;;;15.62;63.29;101830.19;6185656;23;20339;-70
2022/09/01 03:31:26;;;;;;;4.93;1.90;;;;;;;15.60;63.17;101822.25;6159857;23;20001;-69
2022/09/01 03:33:53;;;;;;;3.45;2.00;;;;;;;15.56;63.18;101826.50;6185578;23;20007;-69
2022/09/01 03:36:19;;;;;;;4.88;2.00;;;;;;;15.54;63.40;101828.66;6185811;23;20071;-70
2022/09/01 03:38:49;;;;;;;6.32;2.80;;;;;;;15.52;63.71;101820.69;6185925;23;20013;-70
2022/09/01 03:41:16;;;;;;;5.57;2.00;;;;;;;15.48;63.75;101821.41;6184365;23;20331;-70
2022/09/01 03:43:42;;;;;;;8.23;2.10;;;;;;;15.55;63.53;101827.56;6185394;23;20005;-70
2022/09/01 03:46:09;;;;;;;7.35;2.20;;;;;;;15.55;63.35;101827.56;6185772;23;20326;-70
2022/09/01 03:48:34;;;;;;;4.63;1.90;;;;;;;15.55;63.21;101816.66;6184444;23;20005;-70
2022/09/01 03:51:02;;;;;;;4.35;2.03;;;;;;;15.57;63.33;101822.72;6185624;23;20028;-70
2022/09/01 03:53:33;;;;;;;4.85;2.20;;;;;;;15.56;63.74;101823.78;6185781;23;20331;-70
2022/09/01 03:55:58;;;;;;;4.82;2.20;;;;;;;15.49;63.95;101823.91;6185801;23;20009;-70
2022/09/01 03:58:25;;;;;;;3.20;2.17;;;;;;;15.44;64.14;101820.19;6185696;23;20486;-69
2022/09/01 04:00:54;;;;;;;4.05;2.10;;;;;;;15.42;63.89;101818.53;6182906;23;20001;-70
2022/09/01 04:03:21;;;;;;;4.20;2.17;;;;;;;15.34;64.11;101810.69;6185292;23;20008;-68
2022/09/01 04:05:49;;;;;;;3.00;2.00;;;;;;;15.32;64.80;101814.72;6184210;23;20525;-69
2022/09/01 04:08:15;;;;;;;5.43;1.95;;;;;;;15.32;64.16;101818.25;6183986;23;20001;-70
2022/09/01 04:10:46;;;;;;;3.00;2.30;;;;;;;15.35;64.04;101816.97;6159183;23;20009;-69
2022/09/01 04:13:12;;;;;;;6.83;2.73;;;;;;;15.30;64.25;101814.94;6185786;23;20358;-69
2022/09/01 04:15:38;;;;;;;3.75;2.30;;;;;;;15.30;64.39;101820.41;6186111;23;20107;-70
2022/09/01 04:18:11;;;;;;;7.25;2.20;;;;;;;15.29;64.86;101817.91;6184568;23;20422;-69
2022/09/01 04:20:49;;;;;;;5.25;2.30;;;;;;;15.22;65.11;101815.28;6185613;23;20005;-69
2022/09/01 04:23:25;;;;;;;7.60;2.00;;;;;;;15.18;64.86;101822.28;6186457;23;20035;-69
2022/09/01 04:25:58;;;;;;;7.93;2.65;;;;;;;15.25;64.87;101817.56;6159658;23;19997;-69
2022/09/01 04:28:32;;;;;;;3.88;2.15;;;;;;;15.22;65.38;101827.03;6174072;23;20020;-70
2022/09/01 04:30:57;;;;;;;7.43;2.17;;;;;;;15.28;64.87;101810.78;6186984;23;20506;-69
2022/09/01 04:33:25;;;;;;;9.43;2.53;;;;;;;15.33;64.44;101824.56;6187364;23;19997;-70
2022/09/01 04:35:53;;;;;;;8.70;2.85;;;;;;;15.35;64.92;101816.97;6159832;23;20008;-70
2022/09/01 04:38:20;;;;;;;7.72;2.40;;;;;;;15.29;65.00;101826.09;6185552;23;20008;-70
2022/09/01 04:40:46;;;;;;;7.22;2.65;;;;;;;15.28;64.87;101817.09;6185069;23;20005;-70
2022/09/01 04:43:11;;;;;;;11.75;2.80;;;;;;;15.29;64.34;101821.47;6185284;23;20032;-70
2022/09/01 04:45:37;;;;;;;7.57;2.85;;;;;;;15.27;65.02;101820.88;6185215;23;20387;-69
2022/09/01 04:48:04;;;;;;;8.82;2.25;;;;;;;15.20;64.44;101820.13;6184904;23;20040;-70
2022/09/01 04:50:29;;;;;;;14.13;2.45;;;;;;;15.24;64.48;101815.88;6185019;23;20431;-70
2022/09/01 04:53:00;;;;;;;8.52;2.50;;;;;;;15.23;64.38;101827.84;6185180;23;20008;-69
2022/09/01 04:55:29;;;;;;;7.40;2.60;;;;;;;15.24;63.91;101830.34;6183854;23;20001;-70
2022/09/01 04:57:58;;;;;;;12.48;2.50;;;;;;;15.15;64.64;101828.19;6158450;23;20009;-69
2022/09/01 05:00:25;;;;;;;9.27;2.33;;;;;;;15.12;64.31;101825.94;6184064;23;20012;-70
2022/09/01 05:02:53;;;;;;;9.13;2.35;;;;;;;15.08;64.39;101825.53;6156088;23;20015;-70
2022/09/01 05:05:21;;;;;;;8.57;2.60;;;;;;;15.09;64.63;101826.38;6185281;23;20017;-70
2022/09/01 05:07:51;;;;;;;5.35;2.40;;;;;;;15.09;64.23;101823.66;6184948;23;20080;-70
2022/09/01 05:10:18;;;;;;;5.18;2.50;;;;;;;15.03;64.67;101826.22;6158355;23;20023;-70
2022/09/01 05:12:44;;;;;;;6.38;3.15;;;;;;;15.04;64.77;101827.09;6184893;23;20005;-70
2022/09/01 05:15:12;;;;;;;10.40;3.05;;;;;;;15.04;64.52;101827.09;6185246;23;20005;-70
2022/09/01 05:17:39;;;;;;;5.05;2.40;;;;;;;15.06;64.60;101828.50;6184863;23;20419;-70
2022/09/01 05:20:05;;;;;;;9.90;2.60;;;;;;;15.01;64.37;101822.91;6184240;23;20036;-70
2022/09/01 05:22:31;;;;;;;7.30;2.40;;;;;;;15.02;64.65;101830.03;6185324;23;20016;-70
2022/09/01 05:25:10;;;;;;;8.13;2.65;;;;;;;15.05;64.31;101828.72;6158514;23;20009;-70
2022/09/01 05:27:38;;;;;;;6.45;2.30;;;;;;;15.00;64.49;101823.16;6158762;23;20308;-70
2022/09/01 05:30:07;;;;;;;10.52;2.30;;;;;;;15.04;64.04;101827.91;6157999;23;20001;-70
2022/09/01 05:32:35;;;;;;;10.13;2.70;;;;;;;15.04;64.12;101833.34;6183712;23;20005;-70
2022/09/01 05:35:02;;;;;;;14.52;2.40;;;;;;;15.04;64.11;101827.91;6184211;23;20005;-68
2022/09/01 05:37:29;;;;;;;8.65;2.50;;;;;;;15.06;64.11;101831.22;6183506;23;20390;-68
2022/09/01 05:39:55;;;;;;;10.18;2.53;;;;;;;15.10;64.14;101830.75;6184685;23;20036;-71
2022/09/01 05:42:20;;;;;;;12.23;2.63;;;;;;;15.09;64.25;101831.84;6158690;23;20005;-69
2022/09/01 05:44:46;;;;;;;7.60;2.38;;;;;;;15.07;64.17;101835.63;6184525;23;20009;-69
2022/09/01 05:47:12;;;;;;;8.35;2.72;;;;;;;15.10;64.21;101830.75;6158286;23;20558;-69
2022/09/01 05:49:38;;;;;;;12.38;2.92;;;;;;;15.04;63.88;101833.34;6184742;23;20040;-69
2022/09/01 05:52:04;;;;;;;5.00;2.63;;;;;;;15.12;64.06;101840.38;6157682;23;20005;-70
2022/09/01 05:54:31;;;;;;;8.80;2.72;;;;;;;15.14;63.76;101840.16;6182678;23;20400;-72
2022/09/01 05:56:57;;;;;;;10.52;2.63;;;;;;;15.17;63.62;101834.22;6184812;23;20326;-72
2022/09/01 05:59:24;;;;;;;6.38;2.70;;;;;;;15.18;63.83;101846.81;6158146;23;20084;-69
2022/09/01 06:01:51;;;;;;;11.10;2.50;;;;;;;15.21;63.94;101838.16;6181899;23;20009;-69
2022/09/01 06:04:16;;;;;;;10.52;2.97;;;;;;;15.18;64.10;101841.34;6183850;23;20011;-69
2022/09/01 06:06:48;;;;;;;10.52;2.30;;;;;;;15.15;64.07;101844.53;6184607;23;20398;-71
2022/09/01 06:09:16;;;;;;;9.85;2.50;;;;;;;15.14;64.22;101842.88;6184066;23;20013;-69
2022/09/01 06:11:42;;;;;;;53.40;4.32;;;;;;;15.19;63.71;101846.56;6183164;23;20005;-69
2022/09/01 06:14:10;;;;;;;6.75;2.63;;;;;;;15.20;63.43;101844.66;6184494;23;20412;-69
2022/09/01 06:16:36;;;;;;;9.50;2.50;;;;;;;15.25;63.98;101853.00;6184810;23;20323;-69
2022/09/01 06:19:02;;;;;;;10.18;2.30;;;;;;;15.21;64.00;101844.44;6157500;23;20068;-69
2022/09/01 06:21:27;;;;;;;5.78;2.20;;;;;;;15.26;63.40;101849.19;6184518;23;20005;-69
2022/09/01 06:23:57;;;;;;;9.05;2.47;;;;;;;15.20;63.48;101852.84;6183893;23;20025;-69
2022/09/01 06:26:28;;;;;;;6.22;2.17;;;;;;;15.16;63.31;101851.66;6158396;23;20438;-69
2022/09/01 06:28:55;;;;;;;;;;;;;;;15.37;63.13;101850.31;6185095;23;20008;-69
2022/09/01 06:31:23;;;;;;;8.57;2.60;;;;;;;15.23;63.41;101852.38;6184830;23;19990;-69
2022/09/01 06:33:54;;;;;;;6.15;2.58;;;;;;;15.26;63.75;101845.66;6183832;23;20092;-69
2022/09/01 06:36:22;;;;;;;16.65;2.75;;;;;;;15.27;63.56;101848.13;6184199;23;20012;-69
2022/09/01 06:38:50;;;;;;;4.55;2.20;;;;;;;15.31;63.67;101851.22;6184911;23;20001;-69
2022/09/01 06:41:18;;;;;;;7.13;2.90;;;;;;;15.38;63.21;101849.22;6184751;23;20008;-69
2022/09/01 06:43:44;;;;;;;6.35;2.47;;;;;;;15.44;63.59;101847.47;6184490;23;20005;-69
2022/09/01 06:46:10;;;;;;;7.25;2.28;;;;;;;15.46;63.19;101848.91;6189364;23;20001;-69
2022/09/01 06:48:45;;;;;;;9.70;2.58;;;;;;;15.49;63.72;101850.31;6212252;23;19989;-69
2022/09/01 06:51:21;;;;;;;7.40;2.80;;;;;;;15.55;63.19;101843.94;6158861;23;20013;-69
2022/09/01 06:53:51;;;;;;;9.40;2.50;;;;;;;15.63;62.70;101850.97;6183969;23;20005;-69
2022/09/01 06:56:18;;;;;;;12.82;2.75;;;;;;;15.68;62.89;101853.81;6184716;23;20025;-69
2022/09/01 06:58:47;;;;;;;11.27;2.40;;;;;;;15.76;62.79;101845.28;6184650;23;20015;-69
2022/09/01 07:01:18;;;;;;;13.45;3.13;;;;;;;15.84;63.01;101852.34;6181532;23;20497;-69
2022/09/01 07:03:46;;;;;;;4.28;2.88;;;;;;;15.91;62.46;101863.94;6183953;23;20005;-69
2022/09/01 07:06:13;;;;;;;7.03;2.45;;;;;;;15.93;62.64;101859.13;6183829;23;20390;-69
2022/09/01 07:08:38;;;;;;;10.18;2.92;;;;;;;16.06;62.52;101863.50;6184450;23;20059;-69
2022/09/01 07:11:06;;;;;;;9.80;2.63;;;;;;;16.10;62.49;101865.50;6184311;23;20005;-69
2022/09/01 07:13:34;;;;;;;10.25;2.80;;;;;;;16.15;61.97;101863.97;6182564;23;20064;-69
2022/09/01 07:16:00;;;;;;;9.52;2.83;;;;;;;16.18;62.13;101869.78;6184399;23;20013;-69
2022/09/01 07:18:27;;;;;;;3.92;2.70;;;;;;;16.25;62.02;101875.13;6184728;23;20080;-69
2022/09/01 07:20:53;;;;;;;6.35;2.80;;;;;;;16.28;62.37;101880.13;6184702;23;20012;-69
2022/09/01 07:23:20;;;;;;;8.10;2.92;;;;;;;16.30;62.15;101870.63;6186003;23;20044;-69
2022/09/01 07:25:47;;;;;;;4.93;2.50;;;;;;;16.39;62.11;101879.28;6186432;23;20001;-69
2022/09/01 07:28:14;;;;;;;10.98;2.90;;;;;;;16.44;61.96;101873.09;6186486;23;20033;-69
2022/09/01 07:30:44;;;;;;;3.40;2.67;;;;;;;16.52;62.40;101872.75;6195461;23;20015;-69
2022/09/01 07:33:11;;;;;;;4.82;2.50;;;;;;;16.63;61.84;101874.59;6213391;23;20065;-69
2022/09/01 07:35:39;;;;;;;9.73;2.70;;;;;;;16.71;62.49;101876.13;6196328;23;20059;-70
2022/09/01 07:38:06;;;;;;;6.15;2.85;;;;;;;16.79;62.08;101870.31;6185655;23;20108;-69
2022/09/01 07:40:37;;;;;;;6.15;2.80;;;;;;;16.88;61.72;101869.94;6186418;23;20155;-69
2022/09/01 07:43:04;;;;;;;6.53;2.55;;;;;;;17.00;62.35;101877.03;6185072;23;20005;-69
2022/09/01 07:45:29;;;;;;;8.85;2.70;;;;;;;17.09;61.39;101865.72;6186021;23;20012;-70
2022/09/01 07:48:01;;;;;;;4.43;2.55;;;;;;;17.14;60.85;101872.13;6185580;23;20005;-69
2022/09/01 07:50:28;;;;;;;7.20;2.60;;;;;;;17.22;60.74;101870.88;6186125;23;20001;-69
2022/09/01 07:52:54;;;;;;;5.57;2.60;;;;;;;17.33;61.01;101871.91;6185414;23;19997;-69
2022/09/01 07:55:19;;;;;;;15.70;2.72;;;;;;;17.37;60.14;101875.81;6186093;23;20033;-69
2022/09/01 07:57:45;;;;;;;11.95;2.50;;;;;;;17.42;59.60;101878.66;6186053;23;20001;-69
2022/09/01 08:00:14;;;;;;;8.40;3.10;;;;;;;17.50;60.07;101881.00;6159039;23;20005;-69
2022/09/01 08:02:42;;;;;;;4.53;2.50;;;;;;;17.54;60.26;101864.88;6183131;23;20008;-70
2022/09/01 08:05:09;;;;;;;6.40;2.63;;;;;;;17.62;59.80;101872.72;6184663;23;20059;-69
2022/09/01 08:07:35;;;;;;;11.25;2.85;;;;;;;17.69;59.41;101870.66;6159604;23;20374;-70
2022/09/01 08:10:01;;;;;;;9.90;2.72;;;;;;;17.77;59.68;101869.41;6185769;23;20027;-69
2022/09/01 08:12:26;;;;;;;10.02;2.63;;;;;;;17.83;59.52;101867.56;6185796;23;20033;-69
2022/09/01 08:14:52;;;;;;;4.70;2.67;;;;;;;17.92;59.83;101874.34;6185560;23;20012;-69
2022/09/01 08:17:19;;;;;;;7.63;3.03;;;;;;;17.98;59.84;101875.22;6158908;23;20013;-69
2022/09/01 08:19:45;;;;;;;10.38;2.80;;;;;;;18.08;59.52;101872.66;6185748;23;20207;-69
2022/09/01 08:22:11;;;;;;;5.55;2.60;;;;;;;18.16;59.61;101874.13;6185613;23;20055;-70
2022/09/01 08:24:36;;;;;;;6.80;2.67;;;;;;;18.24;59.16;101879.19;6185831;23;20024;-70
2022/09/01 08:27:03;;;;;;;5.15;2.60;;;;;;;18.30;58.85;101871.84;6185506;23;20001;-70
2022/09/01 08:29:28;;;;;;;5.00;2.83;;;;;;;18.39;58.44;101875.84;6185934;23;20007;-69
2022/09/01 08:31:53;;;;;;;4.40;2.35;;;;;;;18.45;58.93;101868.50;6185399;23;20005;-69
2022/09/01 08:34:19;;;;;;;7.43;2.83;;;;;;;18.53;58.70;101868.91;6157795;23;19997;-69
2022/09/01 08:36:45;;;;;;;4.18;2.35;;;;;;;18.63;58.70;101870.13;6185255;23;20051;-69
2022/09/01 08:39:10;;;;;;;5.25;2.53;;;;;;;18.68;58.52;101872.94;6185413;23;20040;-69
2022/09/01 08:41:50;;;;;;;10.55;2.70;;;;;;;18.77;58.75;101874.97;6185774;23;20012;-69
2022/09/01 08:44:39;;;;;;;8.52;3.10;;;;;;;18.81;58.31;101872.56;6184794;23;20009;-69
2022/09/01 08:47:09;;;;;;;6.40;2.60;;;;;;;18.92;58.21;101873.53;6185180;23;20055;-69
2022/09/01 08:49:37;;;;;;;6.40;2.50;;;;;;;18.95;57.90;101873.84;6185579;23;20083;-70
2022/09/01 08:52:20;;;;;;;6.72;2.38;;;;;;;19.04;58.22;101876.16;6184815;23;20005;-69
2022/09/01 08:54:52;;;;;;;12.13;2.83;;;;;;;19.13;58.14;101880.09;6184808;23;20009;-69
2022/09/01 08:57:22;;;;;;;5.22;3.13;;;;;;;19.23;57.89;101871.13;6185228;23;20005;-69
2022/09/01 08:59:47;;;;;;;8.98;2.40;;;;;;;19.36;57.70;101872.66;6185554;23;20011;-70
2022/09/01 09:02:31;;;;;;;11.15;2.90;;;;;;;19.41;57.31;101868.00;6182777;23;20001;-69
2022/09/01 09:05:05;;;;;;;10.02;2.40;;;;;;;19.52;57.92;101868.97;6185169;23;20012;-69
2022/09/01 09:08:06;;;;;;;10.40;2.65;;;;;;;19.55;57.45;101862.94;6185151;23;20422;-69
2022/09/01 09:10:48;;;;;;;7.80;2.78;;;;;;;19.64;56.52;101858.63;6185640;23;20035;-70
2022/09/01 09:13:43;;;;;;;7.40;2.30;;;;;;;19.69;56.73;101859.75;6184555;23;20005;-70
2022/09/01 09:16:15;;;;;;;4.25;2.70;;;;;;;19.79;56.46;101859.84;6184803;23;20005;-69
2022/09/01 09:18:49;;;;;;;6.32;2.63;;;;;;;19.83;55.85;101856.31;6185478;23;20434;-69
2022/09/01 09:21:27;;;;;;;9.38;3.05;;;;;;;19.90;55.32;101861.59;6184698;23;20013;-70
2022/09/01 09:24:19;;;;;;;8.10;2.70;;;;;;;19.94;55.66;101857.25;6184383;23;20009;-69
2022/09/01 09:26:53;;;;;;;5.85;2.40;;;;;;;19.97;55.95;101851.22;6185368;23;20534;-70
2022/09/01 09:29:21;;;;;;;4.88;2.35;;;;;;;20.08;54.70;101849.38;6184912;23;20031;-70
2022/09/01 09:31:47;;;;;;;7.50;2.35;;;;;;;20.15;54.77;101846.38;6184842;23;20095;-69
2022/09/01 09:34:40;;;;;;;11.93;2.78;;;;;;;20.28;54.71;101853.34;6184039;23;20362;-69
2022/09/01 09:37:16;;;;;;;6.68;2.30;;;;;;;20.31;54.17;101850.88;6181855;23;20423;-69
2022/09/01 09:39:42;;;;;;;5.47;2.05;;;;;;;20.38;53.51;101849.81;6185086;23;20072;-69
2022/09/01 09:42:12;;;;;;;7.55;2.30;;;;;;;20.48;53.71;101844.38;6184755;23;20071;-69
2022/09/01 09:44:49;;;;;;;3.95;2.08;;;;;;;20.53;53.33;101836.13;6158327;23;20059;-69
2022/09/01 09:47:35;;;;;;;7.72;2.75;;;;;;;20.61;53.44;101832.88;6185295;23;20052;-69
2022/09/01 09:50:22;;;;;;;8.43;2.30;;;;;;;20.68;53.22;101828.00;6165562;23;20001;-69
2022/09/01 09:52:49;;;;;;;8.40;2.22;;;;;;;20.78;51.35;101818.94;6199305;23;20001;-69
2022/09/01 09:55:28;;;;;;;7.68;1.80;;;;;;;20.91;51.14;101825.03;6158323;23;20367;-69
2022/09/01 09:58:00;;;;;;;6.72;1.88;;;;;;;20.96;50.38;101819.53;6184998;23;20001;-69
2022/09/01 10:00:33;;;;;;;5.35;1.80;;;;;;;21.05;49.50;101821.47;6183455;23;20005;-69
2022/09/01 10:03:00;;;;;;;2.78;1.50;;;;;;;21.11;48.25;101827.81;6184919;23;20009;-69
2022/09/01 10:05:43;;;;;;;9.23;1.80;;;;;;;21.22;48.15;101832.22;6184273;23;20040;-70
2022/09/01 10:08:36;;;;;;;5.47;1.85;;;;;;;21.29;48.27;101815.47;6184849;23;20507;-70
2022/09/01 10:11:02;;;;;;;4.15;1.70;;;;;;;21.35;46.49;101814.38;6171935;23;20017;-69
2022/09/01 10:13:28;;;;;;;1.48;1.10;;;;;;;21.45;46.14;101813.53;6184427;23;20001;-69
2022/09/01 10:16:08;;;;;;;5.32;1.58;;;;;;;21.49;46.17;101814.63;6184839;23;20051;-70
2022/09/01 10:18:41;;;;;;;2.88;1.33;;;;;;;21.62;45.76;101817.97;6185003;23;20001;-69
2022/09/01 10:21:11;;;;;;;4.20;1.52;;;;;;;21.66;44.17;101814.38;6184753;23;20005;-69
2022/09/01 10:23:37;;;;;;;2.17;1.10;;;;;;;21.80;43.51;101811.06;6184536;23;20009;-69
2022/09/01 10:26:25;;;;;;;3.22;1.40;;;;;;;21.81;44.26;101808.03;6185039;23;20080;-69
2022/09/01 10:29:12;;;;;;;3.55;1.15;;;;;;;21.97;43.48;101817.13;6199452;23;20020;-70
2022/09/01 10:31:39;;;;;;;4.65;1.48;;;;;;;22.09;42.51;101812.13;6184322;23;20052;-69
2022/09/01 10:34:06;;;;;;;4.68;1.20;;;;;;;22.15;42.06;101803.81;6157790;23;20441;-70
2022/09/01 10:36:35;;;;;;;2.38;1.38;;;;;;;22.31;42.23;101810.97;6184809;23;20032;-70
2022/09/01 10:39:01;;;;;;;2.95;1.35;;;;;;;22.27;41.81;101804.34;6184796;23;20028;-69
2022/09/01 10:41:43;;;;;;;6.85;1.45;;;;;;;22.33;43.05;101811.53;6184062;23;20076;-69
2022/09/01 10:44:17;;;;;;;2.25;1.25;;;;;;;22.36;41.41;101812.88;6184101;23;20063;-69
2022/09/01 10:46:44;;;;;;;5.80;1.30;;;;;;;22.37;41.26;101804.31;6184683;23;20063;-70
2022/09/01 10:49:40;;;;;;;4.68;1.23;;;;;;;22.44;41.64;101807.63;6184405;23;20091;-70
2022/09/01 10:52:06;;;;;;;3.40;1.25;;;;;;;22.53;41.08;101809.81;6184242;23;20052;-70
2022/09/01 10:54:37;;;;;;;4.40;1.08;;;;;;;22.57;40.79;101810.88;6158310;23;20009;-70
2022/09/01 10:57:08;;;;;;;2.92;1.33;;;;;;;22.63;40.75;101801.47;6185743;23;20084;-70
2022/09/01 10:59:33;;;;;;;4.22;1.40;;;;;;;22.66;40.08;101795.38;6186760;23;20076;-70
2022/09/01 11:02:08;;;;;;;3.22;1.17;;;;;;;22.71;40.45;101806.41;6183422;23;20039;-70
2022/09/01 11:04:38;;;;;;;5.80;1.13;;;;;;;22.82;40.52;101796.94;6186713;23;20001;-70
2022/09/01 11:07:24;;;;;;;3.45;1.27;;;;;;;22.83;39.71;101803.31;6186597;23;20048;-70
2022/09/01 11:10:12;;;;;;;2.20;1.27;;;;;;;22.84;40.32;101802.16;6186043;23;20088;-70
2022/09/01 11:12:46;;;;;;;4.07;1.45;;;;;;;22.88;38.85;101794.16;6185941;23;20132;-70
2022/09/01 11:15:14;;;;;;;3.35;1.17;;;;;;;23.01;39.22;101801.81;6186187;23;20072;-70
2022/09/01 11:17:48;;;;;;;2.35;0.90;;;;;;;23.12;39.76;101786.84;6186218;23;20391;-70
2022/09/01 11:20:33;;;;;;;4.00;1.10;;;;;;;23.23;40.08;101795.06;6159587;23;20012;-70
2022/09/01 11:23:07;;;;;;;3.70;1.60;;;;;;;23.18;38.50;101793.16;6159463;23;20008;-70
2022/09/01 11:25:37;;;;;;;4.55;1.50;;;;;;;23.14;38.62;101790.16;6186305;23;20056;-70
2022/09/01 11:28:30;;;;;;;5.25;1.42;;;;;;;23.23;39.86;101797.81;6186416;23;20076;-70
2022/09/01 11:31:02;;;;;;;2.65;1.20;;;;;;;23.29;38.19;101788.38;6185824;23;20001;-69
2022/09/01 11:33:47;;;;;;;3.90;1.38;;;;;;;23.45;38.68;101781.63;6159563;23;20005;-70
2022/09/01 11:36:43;;;;;;;5.95;1.45;;;;;;;23.54;39.66;101776.28;6159753;23;20019;-70
2022/09/01 11:39:18;;;;;;;2.90;1.25;;;;;;;23.62;38.88;101772.06;6172757;23;20012;-70
2022/09/01 11:41:49;;;;;;;4.45;1.35;;;;;;;23.63;38.27;101776.50;6185768;23;20116;-70